Time;durP1;ratioP1;P1;durP2;ratioP2;P2;SDS_P1;SDS_P2;PMS_P1;PMS_P2;Temp;Humidity;BMP_temperature;BMP_pressure;BME280_temperature;BME280_humidity;BME280_pressure;Samples;Min_cycle;Max_cycle;Signal;HPM_P1;HPM_P2
2022/06/03 00:02:42;;;;;;;1.73;1.63;;;10.10;99.90;;;;;;4939012;29;20123;-91
2022/06/03 00:05:45;;;;;;;1.70;1.60;;;10.00;99.90;;;;;;4942068;28;20028;-90
2022/06/03 00:08:17;;;;;;;1.60;1.50;;;9.90;99.90;;;;;;4929720;29;20087;-91
2022/06/03 00:10:59;;;;;;;2.47;1.70;;;9.80;99.90;;;;;;4945312;29;20028;-91
2022/06/03 00:13:43;;;;;;;1.60;1.50;;;9.70;99.90;;;;;;4923479;29;20030;-91
2022/06/03 00:16:18;;;;;;;1.65;1.55;;;9.60;99.90;;;;;;4918962;29;20036;-91
2022/06/03 00:18:49;;;;;;;5.30;1.50;;;9.60;99.90;;;;;;4938496;29;20357;-91
2022/06/03 00:21:39;;;;;;;1.90;1.60;;;9.50;99.90;;;;;;4965342;28;20053;-91
2022/06/03 00:24:37;;;;;;;1.92;1.83;;;9.40;99.90;;;;;;4946031;29;20035;-91
2022/06/03 00:27:36;;;;;;;2.00;1.80;;;9.40;99.90;;;;;;4916994;29;20032;-90
2022/06/03 00:30:24;;;;;;;1.95;1.85;;;9.40;99.90;;;;;;4926719;29;20047;-91
2022/06/03 00:32:55;;;;;;;2.10;1.90;;;9.30;99.90;;;;;;4945060;29;20098;-90
2022/06/03 00:35:52;;;;;;;1.83;1.70;;;9.30;99.90;;;;;;4949761;28;20060;-91
2022/06/03 00:38:29;;;;;;;2.17;1.75;;;9.30;99.90;;;;;;4946513;28;20500;-90
2022/06/03 00:41:20;;;;;;;2.20;1.92;;;9.20;99.90;;;;;;4942471;29;20039;-91
2022/06/03 00:44:05;;;;;;;2.25;2.05;;;9.20;99.90;;;;;;4947260;28;20032;-91
2022/06/03 00:47:08;;;;;;;3.10;1.85;;;9.10;99.90;;;;;;4930803;29;20046;-91
2022/06/03 00:49:59;;;;;;;2.60;2.40;;;9.00;99.90;;;;;;4947275;28;20032;-91
2022/06/03 00:52:27;;;;;;;2.47;2.10;;;8.90;99.90;;;;;;4920225;28;20028;-91
2022/06/03 00:55:24;;;;;;;2.00;1.80;;;8.90;99.90;;;;;;4949130;28;20035;-91
2022/06/03 00:57:53;;;;;;;1.70;1.60;;;8.80;99.90;;;;;;4946553;28;20023;-91
2022/06/03 01:00:19;;;;;;;2.13;1.95;;;8.80;99.90;;;;;;4933498;29;20107;-91
2022/06/03 01:03:02;;;;;;;3.42;2.35;;;8.80;99.90;;;;;;4937051;28;20122;-90
2022/06/03 01:05:35;;;;;;;2.50;2.30;;;8.70;99.90;;;;;;4946585;28;20028;-90
2022/06/03 01:08:13;;;;;;;3.85;2.38;;;8.70;99.90;;;;;;4943725;28;20047;-91
2022/06/03 01:10:41;;;;;;;3.15;2.15;;;8.60;99.90;;;;;;4955087;28;20027;-91
2022/06/03 01:13:18;;;;;;;2.17;2.00;;;8.60;99.90;;;;;;4932268;29;20058;-91
2022/06/03 01:16:18;;;;;;;2.13;1.92;;;8.50;99.90;;;;;;4947595;28;20383;-91
2022/06/03 01:19:05;;;;;;;2.50;2.30;;;8.50;99.90;;;;;;4956495;28;20038;-92
2022/06/03 01:22:01;;;;;;;2.10;1.90;;;8.50;99.90;;;;;;4949033;29;20550;-91
2022/06/03 01:25:04;;;;;;;2.55;2.35;;;8.50;99.90;;;;;;4917005;28;20081;-91
2022/06/03 01:27:47;;;;;;;3.70;2.35;;;8.40;99.90;;;;;;4927006;28;20044;-91
2022/06/03 01:30:24;;;;;;;2.67;2.45;;;8.30;99.90;;;;;;4957110;28;20087;-92
2022/06/03 01:33:08;;;;;;;2.90;2.70;;;8.30;99.90;;;;;;4931887;29;20028;-91
2022/06/03 01:36:11;;;;;;;5.68;2.30;;;8.30;99.90;;;;;;4928249;29;20734;-92
2022/06/03 01:39:09;;;;;;;3.10;2.60;;;8.20;99.90;;;;;;4922395;28;20062;-91
2022/06/03 01:41:37;;;;;;;2.70;2.50;;;8.20;99.90;;;;;;4902057;29;20153;-91
2022/06/03 01:44:34;;;;;;;3.28;2.75;;;8.20;99.90;;;;;;4924887;29;20034;-92
2022/06/03 01:47:03;;;;;;;2.70;2.50;;;8.10;99.90;;;;;;4936394;29;20492;-92
2022/06/03 01:49:57;;;;;;;5.35;2.60;;;8.10;99.90;;;;;;4928257;29;20446;-92
2022/06/03 01:52:43;;;;;;;2.80;2.50;;;8.00;99.90;;;;;;4946568;29;20023;-90
2022/06/03 01:55:39;;;;;;;7.68;2.97;;;8.00;99.90;;;;;;4935774;29;20028;-91
2022/06/03 01:58:40;;;;;;;2.58;2.38;;;8.00;99.90;;;;;;4946505;28;21140;-91
2022/06/03 02:01:34;;;;;;;4.72;3.38;;;7.90;99.90;;;;;;4881161;28;20035;-91
2022/06/03 02:04:02;;;;;;;2.75;2.53;;;7.90;99.90;;;;;;4929185;29;20016;-91
2022/06/03 02:06:34;;;;;;;3.60;3.30;;;7.80;99.90;;;;;;4926480;29;20031;-91
2022/06/03 02:09:29;;;;;;;2.75;2.55;;;7.80;99.90;;;;;;4924085;29;20028;-92
2022/06/03 02:12:27;;;;;;;3.20;2.58;;;7.70;99.90;;;;;;4952729;28;20110;-91
2022/06/03 02:15:28;;;;;;;2.80;2.60;;;7.70;99.90;;;;;;4937746;29;20059;-91
2022/06/03 02:18:31;;;;;;;2.75;2.55;;;7.70;99.90;;;;;;4932571;29;20119;-91
2022/06/03 02:21:09;;;;;;;3.05;2.70;;;7.60;99.90;;;;;;4920842;29;20134;-91
2022/06/03 02:24:04;;;;;;;3.13;2.85;;;7.60;99.90;;;;;;4940155;29;20115;-91
2022/06/03 02:26:47;;;;;;;3.83;3.53;;;7.60;99.90;;;;;;4925856;29;20035;-91
2022/06/03 02:32:53;;;;;;;3.25;3.00;;;7.40;99.90;;;;;;4939145;28;20522;-90
2022/06/03 02:35:44;;;;;;;3.00;2.80;;;7.40;99.90;;;;;;4954499;28;20031;-91
2022/06/03 02:38:33;;;;;;;3.60;3.30;;;7.30;99.90;;;;;;4949312;29;20106;-89
2022/06/03 02:41:36;;;;;;;3.63;3.33;;;7.30;99.90;;;;;;4948342;28;20103;-91
2022/06/03 02:44:46;;;;;;;3.47;3.17;;;7.20;99.90;;;;;;4955549;28;20051;-91
2022/06/03 02:47:38;;;;;;;3.38;3.17;;;7.10;99.90;;;;;;4851987;29;20509;-90
2022/06/03 02:50:10;;;;;;;4.00;3.60;;;7.00;99.90;;;;;;4842562;29;20068;-91
2022/06/03 02:53:12;;;;;;;4.07;2.97;;;7.00;99.90;;;;;;4901182;28;20440;-91
2022/06/03 02:56:09;;;;;;;3.75;3.45;;;7.00;99.90;;;;;;4952259;28;20091;-91
2022/06/03 02:58:45;;;;;;;3.72;3.42;;;6.90;99.90;;;;;;4929776;29;20183;-90
2022/06/03 03:01:25;;;;;;;3.80;3.42;;;6.90;99.90;;;;;;4926284;28;20038;-90
2022/06/03 03:04:19;;;;;;;3.47;3.17;;;6.90;99.90;;;;;;4937950;28;20563;-90
2022/06/03 03:07:15;;;;;;;3.40;2.95;;;6.90;99.90;;;;;;4952474;28;20035;-90
2022/06/03 03:10:05;;;;;;;3.47;3.00;;;6.90;99.90;;;;;;4926737;29;20408;-91
2022/06/03 03:13:02;;;;;;;3.85;3.17;;;6.80;99.90;;;;;;4952699;29;20035;-91
2022/06/03 03:15:49;;;;;;;4.85;3.67;;;6.80;99.90;;;;;;4949419;28;20039;-89
2022/06/03 03:18:35;;;;;;;3.92;3.63;;;6.90;99.90;;;;;;4938371;29;20075;-91
2022/06/03 03:21:03;;;;;;;4.10;3.80;;;6.90;99.90;;;;;;4959995;28;20118;-90
2022/06/03 03:23:44;;;;;;;6.90;3.88;;;6.90;99.90;;;;;;4968611;28;20028;-91
2022/06/03 03:26:36;;;;;;;4.45;4.15;;;6.90;99.90;;;;;;4954235;28;20027;-90
2022/06/03 03:29:20;;;;;;;4.22;3.92;;;6.90;99.90;;;;;;4938415;28;20028;-89
2022/06/03 03:32:18;;;;;;;4.07;3.78;;;6.90;99.90;;;;;;4966146;28;20442;-92
2022/06/03 03:35:02;;;;;;;5.75;4.40;;;6.90;99.90;;;;;;4966938;28;20034;-92
2022/06/03 03:37:49;;;;;;;3.92;3.63;;;6.90;99.90;;;;;;4947785;28;20038;-90
2022/06/03 03:40:47;;;;;;;3.53;3.22;;;7.00;99.90;;;;;;4969623;28;20035;-92
2022/06/03 03:43:37;;;;;;;3.50;3.30;;;7.00;99.90;;;;;;4941251;28;20031;-92
2022/06/03 03:46:21;;;;;;;3.60;3.30;;;7.00;99.90;;;;;;4957528;28;20034;-90
2022/06/03 03:49:05;;;;;;;4.65;3.72;;;7.10;99.90;;;;;;4967812;28;20031;-91
2022/06/03 03:51:49;;;;;;;3.75;3.45;;;7.10;99.90;;;;;;4956124;28;20023;-91
2022/06/03 03:54:37;;;;;;;4.78;3.60;;;7.20;99.90;;;;;;4970739;28;20050;-91
2022/06/03 03:57:30;;;;;;;3.10;2.80;;;7.20;99.90;;;;;;4972913;28;20035;-92
2022/06/03 04:00:30;;;;;;;3.88;3.55;;;7.30;99.90;;;;;;4968886;28;20050;-92
2022/06/03 04:03:10;;;;;;;3.17;2.97;;;7.30;99.90;;;;;;4959640;28;20482;-91
2022/06/03 04:05:54;;;;;;;4.88;3.53;;;7.40;99.90;;;;;;4942350;28;20039;-91
2022/06/03 04:08:20;;;;;;;3.40;3.20;;;7.40;99.90;;;;;;4937638;29;20031;-91
2022/06/03 04:10:54;;;;;;;3.72;3.42;;;7.50;99.90;;;;;;4972538;28;20046;-91
2022/06/03 04:14:02;;;;;;;4.00;3.63;;;7.60;99.90;;;;;;4945939;29;20028;-91
2022/06/03 04:16:33;;;;;;;4.13;2.97;;;7.70;99.90;;;;;;4964574;28;20035;-90
2022/06/03 04:19:24;;;;;;;3.40;2.95;;;7.80;99.90;;;;;;4947894;28;20038;-92
2022/06/03 04:22:01;;;;;;;3.50;3.22;;;7.90;99.90;;;;;;4965408;28;20031;-89
2022/06/03 04:25:02;;;;;;;2.85;2.65;;;8.10;99.90;;;;;;4947921;29;20027;-89
2022/06/03 04:27:49;;;;;;;3.53;3.25;;;8.20;99.90;;;;;;4908456;29;20129;-89
2022/06/03 04:30:43;;;;;;;4.15;3.00;;;8.30;99.90;;;;;;4963180;28;20035;-91
2022/06/03 04:33:27;;;;;;;3.83;3.53;;;8.30;99.90;;;;;;4937786;29;20035;-91
2022/06/03 04:36:27;;;;;;;3.03;2.83;;;8.50;99.90;;;;;;4958926;28;20046;-91
2022/06/03 04:39:14;;;;;;;3.08;2.83;;;8.60;99.90;;;;;;4967322;28;20023;-91
2022/06/03 04:42:04;;;;;;;3.42;3.13;;;8.80;99.90;;;;;;4954468;28;20118;-91
2022/06/03 04:44:51;;;;;;;3.60;3.30;;;8.90;99.90;;;;;;4958851;28;20027;-91
2022/06/03 04:47:34;;;;;;;3.88;3.13;;;9.00;99.90;;;;;;4956569;28;20027;-91
2022/06/03 04:50:21;;;;;;;2.90;2.70;;;9.10;99.90;;;;;;4965202;28;20023;-92
2022/06/03 04:53:19;;;;;;;2.60;2.40;;;9.40;99.90;;;;;;4966198;28;20031;-92
2022/06/03 04:56:34;;;;;;;3.33;2.97;;;9.70;99.90;;;;;;4944913;29;20027;-92
2022/06/03 04:59:38;;;;;;;2.97;2.78;;;9.90;99.90;;;;;;4965360;28;20024;-91
2022/06/03 05:02:23;;;;;;;3.35;3.03;;;10.10;99.90;;;;;;4942724;29;20042;-91
2022/06/03 05:05:21;;;;;;;3.17;2.80;;;10.30;99.90;;;;;;4967152;28;20042;-90
2022/06/03 05:07:50;;;;;;;2.60;2.40;;;10.60;99.90;;;;;;4945782;28;20026;-91
2022/06/03 05:10:24;;;;;;;2.58;2.38;;;10.70;99.90;;;;;;4945543;28;20027;-91
2022/06/03 05:13:14;;;;;;;6.53;2.60;;;10.80;99.90;;;;;;4966668;28;20054;-92
2022/06/03 05:16:05;;;;;;;2.60;2.40;;;11.00;99.90;;;;;;4956763;28;20497;-92
2022/06/03 05:19:09;;;;;;;4.45;2.85;;;11.10;99.90;;;;;;4961224;28;20402;-91
2022/06/03 05:21:41;;;;;;;2.78;2.58;;;11.20;99.90;;;;;;4901851;28;20529;-91
2022/06/03 05:24:37;;;;;;;2.80;2.42;;;11.40;99.90;;;;;;4960094;28;20038;-92
2022/06/03 05:27:24;;;;;;;2.78;2.38;;;11.60;99.90;;;;;;4949803;28;20034;-90
2022/06/03 05:30:14;;;;;;;2.58;2.40;;;11.70;99.90;;;;;;4943665;28;20035;-90
2022/06/03 05:32:45;;;;;;;5.68;2.45;;;11.90;99.90;;;;;;4945736;29;20057;-91
2022/06/03 05:35:17;;;;;;;;;;;12.10;99.90;;;;;;4947856;28;20042;-91
2022/06/03 05:37:58;;;;;;;2.38;2.03;;;12.50;99.90;;;;;;4956741;28;19910;-91
2022/06/03 05:40:39;;;;;;;4.00;2.55;;;13.60;99.90;;;;;;4963717;28;20046;-92
2022/06/03 05:43:35;;;;;;;1.70;1.55;;;15.40;99.90;;;;;;4963082;28;20027;-93
2022/06/03 05:46:29;;;;;;;1.95;1.77;;;17.20;96.60;;;;;;4964738;28;20543;-93
2022/06/03 05:49:29;;;;;;;3.55;1.80;;;18.70;90.20;;;;;;4940298;28;20043;-93
2022/06/03 05:52:22;;;;;;;2.75;1.70;;;20.70;78.20;;;;;;4952265;28;20027;-93
2022/06/03 05:55:10;;;;;;;3.08;1.35;;;22.30;71.10;;;;;;4961411;28;20035;-93
2022/06/03 05:57:44;;;;;;;1.30;1.20;;;23.90;64.40;;;;;;4955648;28;20083;-93
2022/06/03 06:00:35;;;;;;;2.17;1.10;;;24.60;58.80;;;;;;4952085;28;20039;-91
2022/06/03 06:03:22;;;;;;;1.10;1.00;;;25.50;56.40;;;;;;4944410;28;20089;-91
2022/06/03 06:06:07;;;;;;;1.30;1.10;;;26.00;54.40;;;;;;4962858;28;20027;-91
2022/06/03 06:09:17;;;;;;;1.10;1.00;;;26.70;52.00;;;;;;4952377;28;20024;-91
2022/06/03 06:12:03;;;;;;;2.03;0.88;;;27.60;50.80;;;;;;4911107;29;20111;-90
2022/06/03 06:14:50;;;;;;;3.20;0.95;;;27.50;49.50;;;;;;4900950;29;20025;-90
2022/06/03 06:17:48;;;;;;;1.15;0.98;;;27.90;47.30;;;;;;4958991;28;20023;-91
2022/06/03 06:20:35;;;;;;;1.58;0.90;;;28.00;47.70;;;;;;4967153;28;20626;-91
2022/06/03 06:23:38;;;;;;;2.25;1.10;;;28.10;47.60;;;;;;4963020;28;20047;-91
2022/06/03 06:26:12;;;;;;;1.55;1.00;;;27.90;46.30;;;;;;4952440;28;20039;-91
2022/06/03 06:28:44;;;;;;;1.30;1.10;;;27.70;47.50;;;;;;4972007;28;20105;-91
2022/06/03 06:31:27;;;;;;;1.33;1.13;;;27.20;48.20;;;;;;4949722;28;20801;-91
2022/06/03 06:34:25;;;;;;;1.48;1.10;;;27.20;47.50;;;;;;4967735;28;20069;-92
2022/06/03 06:37:12;;;;;;;1.05;0.95;;;27.50;46.70;;;;;;4947478;28;20035;-91
2022/06/03 06:40:11;;;;;;;1.00;0.90;;;27.60;48.10;;;;;;4973926;28;20030;-91
2022/06/03 06:42:37;;;;;;;1.77;1.10;;;27.70;46.20;;;;;;4963525;28;20490;-90
2022/06/03 06:45:21;;;;;;;1.35;0.82;;;27.90;46.90;;;;;;4964302;28;20038;-90
2022/06/03 06:47:53;;;;;;;1.67;1.00;;;28.00;47.70;;;;;;4974465;28;20592;-91
2022/06/03 06:51:02;;;;;;;2.33;1.13;;;27.70;46.30;;;;;;4966802;28;20125;-91
2022/06/03 06:53:43;;;;;;;3.50;1.00;;;27.50;47.50;;;;;;4952789;28;20115;-91
2022/06/03 06:56:23;;;;;;;0.80;0.80;;;27.40;47.20;;;;;;4947663;28;20023;-92
2022/06/03 06:59:00;;;;;;;6.85;1.10;;;27.60;48.00;;;;;;4962412;28;20053;-91
2022/06/03 07:01:37;;;;;;;1.63;1.10;;;27.80;49.00;;;;;;4950092;28;20044;-92
2022/06/03 07:04:12;;;;;;;1.70;0.95;;;28.00;47.10;;;;;;4955140;28;20379;-91
2022/06/03 07:06:46;;;;;;;2.30;1.00;;;28.10;46.20;;;;;;4946119;28;20935;-91
2022/06/03 07:09:27;;;;;;;1.88;1.00;;;27.50;47.00;;;;;;4967717;28;20554;-91
2022/06/03 07:12:18;;;;;;;0.90;0.85;;;27.90;46.80;;;;;;4989212;28;20517;-91
2022/06/03 07:14:55;;;;;;;1.60;1.10;;;28.10;45.30;;;;;;4965489;28;20038;-91
2022/06/03 07:20:42;;;;;;;2.47;0.93;;;28.30;46.00;;;;;;4965968;28;20107;-91
2022/06/03 07:23:31;;;;;;;3.72;0.85;;;29.00;44.30;;;;;;4960246;28;20110;-91
2022/06/03 07:26:17;;;;;;;1.50;0.90;;;30.40;43.80;;;;;;4976712;28;20511;-91
2022/06/03 07:28:53;;;;;;;1.30;0.77;;;31.00;41.50;;;;;;4954541;28;20054;-90
2022/06/03 07:31:36;;;;;;;1.25;0.80;;;31.60;42.10;;;;;;4971730;28;20380;-90
2022/06/03 07:34:09;;;;;;;2.10;0.80;;;32.00;40.60;;;;;;4947210;28;20117;-91
2022/06/03 07:37:01;;;;;;;1.13;0.80;;;32.10;40.10;;;;;;4970688;28;20582;-91
2022/06/03 07:40:11;;;;;;;1.50;0.80;;;33.00;40.40;;;;;;4974781;28;20034;-89
2022/06/03 07:42:55;;;;;;;2.20;0.90;;;34.10;38.30;;;;;;4845713;29;20030;-90
2022/06/03 07:45:38;;;;;;;2.55;0.70;;;34.60;37.80;;;;;;4948397;29;20027;-91
2022/06/03 07:48:19;;;;;;;1.85;0.75;;;34.80;36.10;;;;;;4979385;28;20043;-92
2022/06/03 07:51:11;;;;;;;4.00;0.90;;;35.20;36.20;;;;;;4952276;29;20499;-91
2022/06/03 07:53:39;;;;;;;2.90;0.80;;;35.60;35.90;;;;;;4956788;28;20028;-91
2022/06/03 07:56:05;;;;;;;1.80;0.80;;;35.60;35.90;;;;;;4965908;28;20506;-91
2022/06/03 07:58:35;;;;;;;1.08;0.93;;;35.40;37.00;;;;;;4962377;28;20055;-90
2022/06/03 08:01:01;;;;;;;0.98;0.70;;;35.10;36.50;;;;;;4962096;28;20045;-90
2022/06/03 08:03:37;;;;;;;3.85;0.68;;;35.20;37.00;;;;;;4952950;28;20110;-91
2022/06/03 08:06:07;;;;;;;1.98;0.90;;;35.30;36.90;;;;;;4955652;28;20078;-89
2022/06/03 08:11:29;;;;;;;1.40;0.70;;;34.30;37.40;;;;;;4964975;28;20111;-91
2022/06/03 08:13:57;;;;;;;1.83;0.82;;;34.30;37.30;;;;;;4949031;28;20496;-90
2022/06/03 08:16:29;;;;;;;6.45;0.90;;;34.40;36.90;;;;;;4960681;28;20035;-90
2022/06/03 08:19:21;;;;;;;1.13;0.70;;;34.80;38.20;;;;;;4959476;28;20035;-90
2022/06/03 08:21:58;;;;;;;3.45;0.60;;;35.30;38.40;;;;;;4952743;28;20067;-89
2022/06/03 08:24:38;;;;;;;5.28;0.70;;;35.40;36.70;;;;;;4969483;28;20030;-93
2022/06/03 08:27:20;;;;;;;2.17;0.80;;;35.50;36.10;;;;;;4971202;28;20502;-91
2022/06/03 08:29:55;;;;;;;2.05;0.85;;;36.10;37.80;;;;;;4961681;28;20039;-90
2022/06/03 08:32:27;;;;;;;1.98;0.70;;;37.50;34.60;;;;;;4940942;28;20067;-92
2022/06/03 08:34:55;;;;;;;0.80;0.75;;;38.20;34.60;;;;;;4957781;28;20495;-90
2022/06/03 08:37:25;;;;;;;1.77;0.82;;;37.70;33.90;;;;;;4970019;28;20345;-92
2022/06/03 08:39:52;;;;;;;;;;;37.80;33.70;;;;;;4972764;28;20505;-91
2022/06/03 08:42:24;;;;;;;1.05;0.88;;;37.60;33.50;;;;;;4966006;28;19902;-91
2022/06/03 08:45:11;;;;;;;1.73;0.68;;;38.40;35.20;;;;;;4966183;28;20055;-91
2022/06/03 08:47:57;;;;;;;2.53;0.80;;;38.10;33.90;;;;;;4962045;28;20030;-91
2022/06/03 08:50:32;;;;;;;2.42;0.80;;;37.00;33.50;;;;;;4957616;28;20020;-92
2022/06/03 08:53:17;;;;;;;1.20;0.70;;;37.40;34.80;;;;;;4964270;28;20023;-92
2022/06/03 08:55:59;;;;;;;1.23;0.88;;;37.30;34.80;;;;;;4949911;28;20024;-93
2022/06/03 08:58:33;;;;;;;3.22;0.90;;;36.90;34.40;;;;;;4956942;28;20049;-91
2022/06/03 09:01:03;;;;;;;1.13;0.65;;;36.70;34.20;;;;;;4969295;28;20042;-90
2022/06/03 09:03:35;;;;;;;0.80;0.77;;;37.30;35.80;;;;;;4963030;28;20019;-90
2022/06/03 09:06:14;;;;;;;0.70;0.70;;;37.40;35.10;;;;;;4972845;28;20146;-92
2022/06/03 09:08:50;;;;;;;0.90;0.80;;;36.60;35.70;;;;;;4954180;28;20534;-92
2022/06/03 09:11:25;;;;;;;1.60;1.00;;;36.00;35.80;;;;;;4972172;28;20442;-91
2022/06/03 09:13:53;;;;;;;18.27;1.85;;;36.30;36.60;;;;;;4963187;28;20032;-91
2022/06/03 09:16:20;;;;;;;5.75;0.90;;;35.70;35.60;;;;;;4938202;28;20028;-91
2022/06/03 09:18:55;;;;;;;2.45;0.85;;;33.90;37.70;;;;;;4956280;28;20047;-91
2022/06/03 09:21:26;;;;;;;7.13;1.10;;;33.00;39.00;;;;;;4973009;28;20533;-91
2022/06/03 09:23:54;;;;;;;;;;;32.60;40.50;;;;;;4949622;28;20058;-91
2022/06/03 09:26:24;;;;;;;1.48;1.05;;;32.50;40.60;;;;;;4969763;28;19916;-91
2022/06/03 09:28:51;;;;;;;2.60;1.10;;;32.30;39.40;;;;;;4964542;28;20058;-90
2022/06/03 09:31:19;;;;;;;1.70;0.90;;;31.60;40.70;;;;;;4959591;28;20027;-91
2022/06/03 09:33:45;;;;;;;5.97;0.98;;;31.50;41.40;;;;;;4972363;28;20471;-90
2022/06/03 09:36:17;;;;;;;1.80;0.90;;;32.80;40.80;;;;;;4955829;28;20039;-89
2022/06/03 09:38:45;;;;;;;1.75;1.00;;;32.60;40.10;;;;;;4955851;28;20038;-92
2022/06/03 09:41:12;;;;;;;1.58;1.10;;;32.10;39.50;;;;;;4952362;28;20031;-93
2022/06/03 09:43:42;;;;;;;1.20;1.10;;;32.30;40.50;;;;;;4946501;28;20031;-91
2022/06/03 09:46:14;;;;;;;2.33;0.90;;;31.80;40.70;;;;;;4959752;28;20035;-91
2022/06/03 09:48:42;;;;;;;2.00;0.93;;;31.40;40.50;;;;;;4958357;28;20022;-90
2022/06/03 09:54:22;;;;;;;1.60;1.30;;;32.00;40.80;;;;;;4965117;28;20037;-92
2022/06/03 09:56:51;;;;;;;4.78;1.13;;;32.40;40.30;;;;;;4950104;28;20464;-91
2022/06/03 09:59:20;;;;;;;1.13;0.93;;;32.20;40.00;;;;;;4949959;28;20059;-91
2022/06/03 10:01:48;;;;;;;3.78;1.13;;;32.40;40.10;;;;;;4959004;28;20038;-90
2022/06/03 10:04:15;;;;;;;1.35;1.00;;;31.70;39.80;;;;;;4946443;28;20077;-92
2022/06/03 10:06:46;;;;;;;4.25;1.25;;;31.70;41.00;;;;;;4968059;28;20029;-92
2022/06/03 10:14:41;;;;;;;1.17;1.08;;;30.10;44.00;;;;;;4966760;28;20050;-91
2022/06/03 10:17:09;;;;;;;1.73;1.25;;;29.80;45.80;;;;;;4951344;28;20084;-90
2022/06/03 10:19:35;;;;;;;1.45;0.98;;;29.70;46.30;;;;;;4961698;28;20039;-92
2022/06/03 10:22:08;;;;;;;1.65;1.10;;;29.90;45.40;;;;;;4960567;28;20043;-92
2022/06/03 10:24:34;;;;;;;2.78;1.48;;;30.10;45.50;;;;;;4965960;28;20034;-91
2022/06/03 10:27:03;;;;;;;2.85;1.40;;;30.30;46.20;;;;;;4954712;28;20038;-91
2022/06/03 10:29:30;;;;;;;2.63;1.40;;;29.60;47.10;;;;;;4974457;28;20047;-92
2022/06/03 10:32:06;;;;;;;3.85;1.17;;;29.40;47.00;;;;;;4957507;28;20038;-92
2022/06/03 10:34:38;;;;;;;1.27;1.17;;;29.70;46.80;;;;;;4964896;28;20576;-91
2022/06/03 10:37:08;;;;;;;2.15;1.17;;;29.90;46.90;;;;;;4957590;28;20035;-91
2022/06/03 10:39:34;;;;;;;1.27;1.08;;;29.70;45.90;;;;;;4957048;29;20161;-90
2022/06/03 10:41:59;;;;;;;2.28;1.17;;;30.00;47.40;;;;;;4956177;28;20122;-91
2022/06/03 10:44:33;;;;;;;2.47;1.10;;;30.00;47.40;;;;;;4953758;28;20043;-90
2022/06/03 10:46:59;;;;;;;6.13;1.17;;;30.50;45.70;;;;;;4963860;28;20027;-90
2022/06/03 10:49:27;;;;;;;1.80;1.10;;;30.70;46.10;;;;;;4941571;29;20031;-88
2022/06/03 11:03:00;;;;;;;1.38;1.00;;;31.70;45.40;;;;;;4968582;28;20034;-90
2022/06/03 11:05:29;;;;;;;1.77;1.20;;;32.70;43.00;;;;;;4968782;28;20028;-90
2022/06/03 11:08:16;;;;;;;1.48;1.10;;;33.40;41.80;;;;;;4960953;28;20381;-90
2022/06/03 11:10:50;;;;;;;1.17;0.90;;;33.90;42.30;;;;;;4960304;28;20039;-89
2022/06/03 11:13:31;;;;;;;3.17;1.08;;;33.90;40.50;;;;;;4968849;28;20027;-90
2022/06/03 11:16:18;;;;;;;2.10;0.82;;;32.60;41.20;;;;;;4956147;28;20026;-89
2022/06/03 11:18:44;;;;;;;1.15;1.05;;;32.70;43.70;;;;;;4966700;28;20023;-89
2022/06/03 11:21:36;;;;;;;1.70;1.10;;;32.00;42.70;;;;;;4960983;28;20454;-90
2022/06/03 11:24:02;;;;;;;1.50;1.40;;;31.30;43.90;;;;;;4947779;28;20082;-90
2022/06/03 11:26:37;;;;;;;1.75;1.38;;;30.50;45.20;;;;;;4967447;28;20038;-92
2022/06/03 11:29:11;;;;;;;1.52;1.30;;;30.20;45.00;;;;;;4953804;28;20027;-91
2022/06/03 11:31:42;;;;;;;1.40;1.00;;;30.30;45.70;;;;;;4953625;28;20122;-89
2022/06/03 11:34:16;;;;;;;1.30;1.20;;;30.20;46.00;;;;;;4963702;28;20238;-91
2022/06/03 11:36:45;;;;;;;1.45;1.17;;;30.10;45.60;;;;;;4969383;28;20061;-92
2022/06/03 11:39:29;;;;;;;3.05;1.10;;;30.50;45.50;;;;;;4954039;28;20447;-90
2022/06/03 11:42:10;;;;;;;1.55;1.05;;;31.20;46.30;;;;;;4942957;28;20104;-92
2022/06/03 11:44:39;;;;;;;;;;;31.00;45.00;;;;;;4972898;28;20388;-89
2022/06/03 11:47:17;;;;;;;1.63;1.30;;;30.30;45.70;;;;;;4968593;28;19993;-91
2022/06/03 11:49:43;;;;;;;3.30;1.30;;;29.90;48.30;;;;;;4971246;28;20031;-91
2022/06/03 11:52:09;;;;;;;2.50;1.30;;;30.00;46.90;;;;;;4965417;28;20039;-91
2022/06/03 11:54:36;;;;;;;2.90;1.15;;;29.90;45.80;;;;;;4969328;28;20027;-90
2022/06/03 11:57:02;;;;;;;1.40;1.13;;;30.30;46.40;;;;;;4961376;28;20030;-92
2022/06/03 11:59:45;;;;;;;0.93;0.93;;;29.80;46.30;;;;;;4968117;28;20520;-90
2022/06/03 12:02:17;;;;;;;2.65;1.20;;;30.00;47.50;;;;;;4957557;28;20046;-91
2022/06/03 12:05:01;;;;;;;2.25;1.05;;;30.30;46.30;;;;;;4969422;28;20031;-91
2022/06/03 12:07:44;;;;;;;1.20;1.00;;;30.10;47.70;;;;;;4942936;28;20028;-91
2022/06/03 12:10:48;;;;;;;1.77;1.17;;;30.10;45.10;;;;;;4956457;28;20035;-90
2022/06/03 12:13:29;;;;;;;2.30;1.17;;;29.70;46.00;;;;;;4957828;28;20483;-92
2022/06/03 12:15:55;;;;;;;1.20;1.00;;;29.90;48.20;;;;;;4954859;28;20114;-92
2022/06/03 12:18:39;;;;;;;1.27;0.95;;;30.50;47.30;;;;;;4949981;28;20578;-90
2022/06/03 12:21:10;;;;;;;2.13;1.00;;;30.60;46.60;;;;;;4940642;28;20053;-90
2022/06/03 12:23:38;;;;;;;1.35;1.00;;;31.00;45.60;;;;;;4965204;28;20034;-92
2022/06/03 12:26:18;;;;;;;2.72;1.13;;;30.70;45.10;;;;;;4966345;28;20039;-90
2022/06/03 12:28:47;;;;;;;1.20;1.10;;;30.30;45.50;;;;;;4960907;28;20028;-91
2022/06/03 12:31:19;;;;;;;2.05;1.20;;;30.00;46.40;;;;;;4972103;28;20026;-90
2022/06/03 12:33:57;;;;;;;1.92;1.20;;;30.30;46.50;;;;;;4967685;28;20030;-91
2022/06/03 12:36:45;;;;;;;2.53;1.05;;;30.30;47.30;;;;;;4962670;28;20074;-91
2022/06/03 12:39:34;;;;;;;1.10;1.00;;;30.40;45.60;;;;;;4967972;28;20034;-92
2022/06/03 12:42:31;;;;;;;1.27;1.17;;;30.50;46.50;;;;;;4962189;28;20051;-91
2022/06/03 12:44:56;;;;;;;2.13;1.10;;;31.00;46.30;;;;;;4950031;28;20046;-91
2022/06/03 12:47:36;;;;;;;1.13;1.08;;;31.40;43.60;;;;;;4946303;28;20113;-91
2022/06/03 12:50:05;;;;;;;1.30;1.20;;;31.20;44.50;;;;;;4951659;28;20027;-92
2022/06/03 12:52:31;;;;;;;2.33;1.17;;;31.00;44.70;;;;;;4945743;28;20499;-92
2022/06/03 12:55:17;;;;;;;7.03;1.58;;;30.70;45.20;;;;;;4968330;28;20034;-92
2022/06/03 12:57:47;;;;;;;1.48;1.27;;;29.80;46.60;;;;;;4966639;28;20027;-92
2022/06/03 13:00:19;;;;;;;;;;;29.70;49.50;;;;;;4950086;28;20035;-93
2022/06/03 13:03:17;;;;;;;1.85;1.20;;;29.90;48.10;;;;;;4951926;28;19939;-92
2022/06/03 13:05:44;;;;;;;1.15;1.05;;;29.70;47.30;;;;;;4928765;28;20036;-92
2022/06/03 13:08:28;;;;;;;1.50;1.30;;;29.70;47.00;;;;;;4969460;28;20022;-92
2022/06/03 13:10:59;;;;;;;2.17;1.10;;;29.40;47.60;;;;;;4953461;28;20097;-93
2022/06/03 13:13:32;;;;;;;1.60;1.30;;;29.40;47.70;;;;;;4951352;28;20042;-92
2022/06/03 13:16:17;;;;;;;1.63;1.20;;;29.20;47.90;;;;;;4965439;28;20073;-93
2022/06/03 13:18:45;;;;;;;1.67;1.20;;;29.60;50.10;;;;;;4971192;28;20105;-92
2022/06/03 13:21:13;;;;;;;1.20;1.10;;;29.80;48.00;;;;;;4953769;28;20127;-92
2022/06/03 13:23:42;;;;;;;1.20;1.10;;;29.90;48.00;;;;;;4951100;28;20027;-92
2022/06/03 13:26:22;;;;;;;2.45;1.30;;;29.50;48.20;;;;;;4972119;28;20031;-92
2022/06/03 13:28:50;;;;;;;2.60;1.40;;;29.30;48.30;;;;;;4968840;28;20097;-91
2022/06/03 13:31:19;;;;;;;1.30;1.20;;;29.10;48.80;;;;;;4972236;28;20085;-91
2022/06/03 13:36:41;;;;;;;2.22;1.40;;;29.30;49.80;;;;;;4966134;28;20510;-91
2022/06/03 13:39:13;;;;;;;4.53;1.40;;;29.20;48.30;;;;;;4967047;28;20023;-92
2022/06/03 13:44:40;;;;;;;2.38;1.20;;;29.20;49.10;;;;;;4965326;28;20038;-92
2022/06/03 13:47:22;;;;;;;1.58;1.30;;;29.40;49.20;;;;;;4967450;28;20157;-92
2022/06/03 13:50:18;;;;;;;1.65;1.30;;;29.20;48.80;;;;;;4960609;28;20051;-91
2022/06/03 13:52:46;;;;;;;1.92;1.30;;;29.10;50.20;;;;;;4969710;28;20106;-92
2022/06/03 13:55:34;;;;;;;6.85;1.55;;;29.20;48.80;;;;;;4950321;28;20396;-92
2022/06/03 13:58:12;;;;;;;1.73;1.27;;;29.30;48.20;;;;;;4970734;28;20146;-91
2022/06/03 14:00:39;;;;;;;1.77;1.35;;;29.40;48.30;;;;;;4951849;28;20114;-91
2022/06/03 14:03:04;;;;;;;2.28;1.10;;;29.50;48.70;;;;;;4952735;28;20033;-91
2022/06/03 14:05:40;;;;;;;1.23;1.13;;;29.60;48.60;;;;;;4962039;28;20035;-91
2022/06/03 14:08:29;;;;;;;1.15;1.02;;;29.80;47.80;;;;;;4968555;28;20078;-91
2022/06/03 14:11:06;;;;;;;2.30;1.20;;;29.80;49.00;;;;;;4960608;28;20106;-91
2022/06/03 14:13:45;;;;;;;1.58;1.48;;;29.40;49.00;;;;;;4959459;28;20035;-91
2022/06/03 14:16:29;;;;;;;1.88;1.17;;;29.40;48.10;;;;;;4945798;29;20091;-92
2022/06/03 14:19:00;;;;;;;2.65;1.20;;;29.30;49.20;;;;;;4961916;28;20030;-93
2022/06/03 14:21:38;;;;;;;;;;;29.40;48.80;;;;;;4951124;28;20030;-92
2022/06/03 14:24:18;;;;;;;2.20;1.35;;;29.60;48.30;;;;;;4956182;28;19906;-92
2022/06/03 14:27:10;;;;;;;2.00;1.13;;;29.50;48.50;;;;;;4941623;28;20028;-92
2022/06/03 14:29:48;;;;;;;1.30;1.20;;;29.40;48.70;;;;;;4971812;28;20486;-93
2022/06/03 14:32:19;;;;;;;1.10;1.00;;;29.40;48.40;;;;;;4970864;28;20033;-91
2022/06/03 14:34:56;;;;;;;1.20;1.10;;;29.60;48.60;;;;;;4945756;28;20042;-91
2022/06/03 14:37:35;;;;;;;1.45;1.20;;;29.30;47.50;;;;;;4978302;28;20034;-91
2022/06/03 14:40:13;;;;;;;2.38;1.13;;;29.00;48.40;;;;;;4955649;28;20027;-91